Terminal Aerodrome Forecast
Issued by NWS Charleston, WV

Current Version | Previous Version | Graphics & Text | Print | Product List | Glossary On
Versions: 1 2 3 4 5 6 7 8 9 10 11 12 13 14 15 16 17 18 19 20 21 22 23 24 25 26 27 28 29
658
FTUS41 KRLX 210829 AAA
TAFBKW
TAF AMD
KBKW 210829Z 2108/2206 00000KT 6SM -RA OVC060
      TEMPO 2109/2113 6SM -RA BKN040
     FM211400 VRB03KT P6SM BKN020
     FM211500 29004KT P6SM BKN025
     FM212200 31008KT P6SM BKN025
     FM220500 30004KT P6SM SCT045=

USA.gov is the U.S. government's official web portal to all federal, state and local government web resources and services.